KFEW/FEW METAR and TAF weather

Enter ICAO airport designator
Station Type Date Time Source
KFEW METAR 2019/12/09 21:58 UTC NOAA

KFEW 092158Z 31012G21KT 10SM CLR M01/M08 A2994 RMK AO2A SLP183 T10061082 $


Station Type Date Time Source
KFEW Decoded METAR 2019/12/09 21:58 UTC NOAA

Station name not available
Dec 09, 2019 - 04:58 PM EST / 2019.12.09 2158 UTC
Wind: from the NW (310 degrees) at 14 MPH (12 KT) gusting to 24 MPH (21 KT):0
Visibility: 10 mile(s):0
Sky conditions: clear
Temperature: 30.9 F (-0.6 C)
Windchill: 21 F (-6 C):1
Dew Point: 17.2 F (-8.2 C)
Relative Humidity: 56%
Pressure (altimeter): 29.94 in. Hg (1013 hPa)
ob: KFEW 092158Z 31012G21KT 10SM CLR M01/M08 A2994 RMK AO2A SLP183 T10061082
cycle: 22

Station Type Date Time Source
KFEW TAF UTC NOAA

Error!

Example: see airport list